Time;durP1;ratioP1;P1;durP2;ratioP2;P2;SDS_P1;SDS_P2;PMS_P1;PMS_P2;Temp;Humidity;BMP_temperature;BMP_pressure;BME280_temperature;BME280_humidity;BME280_pressure;Samples;Min_cycle;Max_cycle;Signal;HPM_P1;HPM_P2
2023/10/13 00:01:55;;;;;;;13.80;7.40;;;17.10;99.90;;;;;;4956502;28;20038;-82
2023/10/13 00:04:24;;;;;;;13.25;7.43;;;17.20;99.90;;;;;;4955153;28;20031;-82
2023/10/13 00:06:54;;;;;;;13.90;8.48;;;17.20;99.90;;;;;;4959409;28;20036;-82
2023/10/13 00:09:25;;;;;;;11.05;5.80;;;17.20;99.90;;;;;;4971899;28;20073;-82
2023/10/13 00:11:52;;;;;;;13.45;7.68;;;17.20;99.90;;;;;;4973312;28;20042;-82
2023/10/13 00:14:18;;;;;;;11.90;7.90;;;17.20;99.90;;;;;;4972835;28;20081;-82
2023/10/13 00:17:04;;;;;;;8.95;6.30;;;17.20;99.90;;;;;;4972388;28;20046;-82
2023/10/13 00:19:46;;;;;;;11.35;8.18;;;17.20;99.90;;;;;;4974394;28;20049;-83
2023/10/13 00:22:15;;;;;;;9.30;7.20;;;17.20;99.90;;;;;;4971875;28;20085;-80
2023/10/13 00:24:51;;;;;;;10.70;7.22;;;17.20;99.90;;;;;;4958685;28;20034;-80
2023/10/13 00:30:14;;;;;;;13.80;7.78;;;17.20;99.90;;;;;;4977147;28;20030;-81
2023/10/13 00:32:42;;;;;;;8.18;5.65;;;17.20;99.90;;;;;;4979976;28;20030;-81
2023/10/13 00:35:11;;;;;;;11.25;7.03;;;17.30;99.90;;;;;;4957676;28;20034;-81
2023/10/13 00:37:44;;;;;;;10.68;6.82;;;17.20;99.90;;;;;;4952183;28;20138;-81
2023/10/13 00:40:27;;;;;;;9.93;6.80;;;17.20;99.90;;;;;;4972261;28;20045;-81
2023/10/13 00:42:53;;;;;;;14.57;7.45;;;17.20;99.90;;;;;;4959663;28;20058;-81
2023/10/13 00:45:19;;;;;;;11.40;7.22;;;17.20;99.90;;;;;;4991125;28;20088;-79
2023/10/13 00:47:49;;;;;;;12.32;7.85;;;17.20;99.90;;;;;;4970466;28;20038;-80
2023/10/13 00:50:17;;;;;;;15.77;6.80;;;17.20;99.90;;;;;;4963101;28;20034;-80
2023/10/13 00:52:44;;;;;;;17.10;7.75;;;17.20;99.90;;;;;;4974854;28;20045;-81
2023/10/13 00:55:09;;;;;;;9.85;6.80;;;17.30;99.90;;;;;;4961860;28;20027;-80
2023/10/13 00:57:36;;;;;;;13.75;6.80;;;17.30;99.90;;;;;;4959628;28;20049;-80
2023/10/13 01:00:12;;;;;;;7.25;5.47;;;17.30;99.90;;;;;;4971970;28;20625;-80
2023/10/13 01:02:38;;;;;;;10.23;7.07;;;17.30;99.90;;;;;;4957634;28;20553;-81
2023/10/13 01:05:04;;;;;;;13.70;5.90;;;17.30;99.90;;;;;;4976420;28;20038;-80
2023/10/13 01:07:30;;;;;;;11.70;8.10;;;17.30;99.90;;;;;;4970650;28;20038;-80
2023/10/13 01:09:55;;;;;;;9.05;6.47;;;17.30;99.90;;;;;;4972340;28;20490;-81
2023/10/13 01:12:24;;;;;;;10.32;7.78;;;17.30;99.90;;;;;;4972140;28;20050;-80
2023/10/13 01:14:50;;;;;;;12.60;7.07;;;17.30;99.90;;;;;;4973097;28;20121;-80
2023/10/13 01:17:15;;;;;;;11.50;6.78;;;17.30;99.90;;;;;;4974530;28;20121;-80
2023/10/13 01:19:45;;;;;;;11.55;6.47;;;17.30;99.90;;;;;;4975104;28;20022;-82
2023/10/13 01:22:11;;;;;;;14.45;7.85;;;17.30;99.90;;;;;;4959576;28;20033;-82
2023/10/13 01:24:37;;;;;;;13.15;7.90;;;17.30;99.90;;;;;;4976953;28;20039;-81
2023/10/13 01:27:19;;;;;;;9.77;6.93;;;17.30;99.90;;;;;;4960623;28;20513;-82
2023/10/13 01:29:48;;;;;;;9.43;5.57;;;17.30;99.90;;;;;;4963724;28;20062;-82
2023/10/13 01:32:16;;;;;;;9.95;5.80;;;17.30;99.90;;;;;;4970604;28;20034;-81
2023/10/13 01:34:45;;;;;;;11.00;8.05;;;17.30;99.90;;;;;;4961114;28;20044;-82
2023/10/13 01:37:11;;;;;;;13.48;7.13;;;17.40;99.90;;;;;;4975515;28;20034;-82
2023/10/13 01:39:37;;;;;;;10.50;6.50;;;17.40;99.90;;;;;;4975243;28;20038;-82
2023/10/13 01:42:02;;;;;;;9.75;6.40;;;17.40;99.90;;;;;;4970415;28;20041;-82
2023/10/13 01:44:30;;;;;;;11.75;6.85;;;17.30;99.90;;;;;;4979396;28;20494;-83
2023/10/13 01:46:58;;;;;;;8.43;6.30;;;17.30;99.90;;;;;;4960902;28;20108;-82
2023/10/13 01:49:24;;;;;;;10.68;6.10;;;17.40;99.90;;;;;;4942754;28;20045;-82
2023/10/13 01:51:50;;;;;;;8.68;5.68;;;17.30;99.90;;;;;;4975027;28;20482;-82
2023/10/13 01:54:17;;;;;;;10.43;8.32;;;17.30;99.90;;;;;;4972737;28;20092;-81
2023/10/13 01:56:43;;;;;;;13.27;8.35;;;17.30;99.90;;;;;;4978755;28;20691;-82
2023/10/13 01:59:10;;;;;;;15.90;6.95;;;17.30;99.90;;;;;;4962047;28;20105;-82
2023/10/13 02:01:35;;;;;;;9.65;6.30;;;17.30;99.90;;;;;;4975054;28;20027;-83
2023/10/13 02:04:04;;;;;;;14.77;7.22;;;17.30;99.90;;;;;;4958334;28;20152;-83
2023/10/13 02:06:38;;;;;;;11.30;7.40;;;17.30;99.90;;;;;;4961460;28;20031;-83
2023/10/13 02:09:10;;;;;;;11.50;6.90;;;17.20;99.90;;;;;;4976709;28;20022;-83
2023/10/13 02:11:40;;;;;;;9.48;8.02;;;17.20;99.90;;;;;;4980713;28;20088;-82
2023/10/13 02:14:05;;;;;;;11.70;7.38;;;17.20;99.90;;;;;;4959562;28;20058;-82
2023/10/13 02:16:31;;;;;;;12.40;8.02;;;17.20;99.90;;;;;;4975818;28;20125;-82
2023/10/13 02:19:03;;;;;;;12.63;7.20;;;17.20;99.90;;;;;;4970919;28;20097;-83
2023/10/13 02:21:31;;;;;;;11.23;6.78;;;17.20;99.90;;;;;;4974219;28;20096;-83
2023/10/13 02:24:00;;;;;;;10.90;7.63;;;17.20;99.90;;;;;;4962848;28;20037;-83
2023/10/13 02:26:38;;;;;;;15.27;7.30;;;17.20;99.90;;;;;;4955074;28;20486;-83
2023/10/13 02:29:07;;;;;;;10.52;6.97;;;17.20;99.90;;;;;;4963205;28;20964;-83
2023/10/13 02:31:36;;;;;;;10.73;8.02;;;17.20;99.90;;;;;;4959983;28;20026;-83
2023/10/13 02:34:08;;;;;;;12.82;8.45;;;17.20;99.90;;;;;;4975469;28;20030;-83
2023/10/13 02:36:38;;;;;;;12.48;7.82;;;17.20;99.90;;;;;;4975296;28;20096;-83
2023/10/13 02:39:07;;;;;;;12.10;8.32;;;17.20;99.90;;;;;;4975274;28;20473;-83
2023/10/13 02:41:33;;;;;;;10.10;6.95;;;17.20;99.90;;;;;;4976381;28;20565;-83
2023/10/13 02:43:58;;;;;;;16.98;7.97;;;17.20;99.90;;;;;;4977213;28;20097;-82
2023/10/13 02:46:30;;;;;;;11.40;8.35;;;17.20;99.90;;;;;;4959491;28;20030;-83
2023/10/13 02:48:57;;;;;;;10.25;6.80;;;17.20;99.90;;;;;;4963255;28;20058;-83
2023/10/13 02:51:35;;;;;;;12.07;7.95;;;17.20;99.90;;;;;;4975268;28;20041;-84
2023/10/13 02:54:03;;;;;;;11.75;7.60;;;17.20;99.90;;;;;;4958839;28;20235;-83
2023/10/13 02:56:28;;;;;;;13.77;8.15;;;17.20;99.90;;;;;;4960574;28;20474;-83
2023/10/13 02:58:56;;;;;;;13.30;7.68;;;17.20;99.90;;;;;;4973196;28;20037;-83
2023/10/13 03:01:26;;;;;;;16.30;7.57;;;17.20;99.90;;;;;;4974561;28;20030;-83
2023/10/13 03:03:58;;;;;;;13.30;7.03;;;17.20;99.90;;;;;;4957864;28;20184;-80
2023/10/13 03:06:32;;;;;;;11.68;8.07;;;17.20;99.90;;;;;;4962075;28;20490;-84
2023/10/13 03:09:21;;;;;;;10.80;7.72;;;17.20;99.90;;;;;;4958452;28;20084;-84
2023/10/13 03:11:48;;;;;;;11.63;6.88;;;17.20;99.90;;;;;;4980480;28;20419;-84
2023/10/13 03:14:27;;;;;;;13.73;8.25;;;17.10;99.90;;;;;;4970988;28;20529;-82
2023/10/13 03:17:05;;;;;;;12.18;7.95;;;17.10;99.90;;;;;;4973209;28;20493;-84
2023/10/13 03:19:34;;;;;;;11.70;8.20;;;17.10;99.90;;;;;;4960733;28;20034;-84
2023/10/13 03:22:09;;;;;;;10.55;7.47;;;17.10;99.90;;;;;;4957389;28;20041;-84
2023/10/13 03:24:34;;;;;;;14.27;8.13;;;17.10;99.90;;;;;;4972633;28;20110;-83
2023/10/13 03:27:11;;;;;;;11.52;7.20;;;17.10;99.90;;;;;;4974817;28;20044;-83
2023/10/13 03:29:43;;;;;;;10.25;6.85;;;17.20;99.90;;;;;;4959426;28;20030;-84
2023/10/13 03:32:12;;;;;;;12.25;7.45;;;17.10;99.90;;;;;;4956612;28;20519;-82
2023/10/13 03:34:49;;;;;;;14.25;8.38;;;17.10;99.90;;;;;;4974131;28;24843;-84
2023/10/13 03:37:49;;;;;;;12.30;7.63;;;17.10;99.90;;;;;;4961794;28;20034;-83
2023/10/13 03:41:06;;;;;;;11.55;8.15;;;17.00;99.90;;;;;;4960634;28;20034;-84
2023/10/13 03:43:04;;;;;;;12.88;8.00;;;17.00;99.90;;;;;;4973053;28;20045;-82
2023/10/13 03:45:42;;;;;;;11.68;7.45;;;17.10;99.90;;;;;;4977921;28;20036;-84
2023/10/13 03:48:27;;;;;;;10.90;6.68;;;17.10;99.90;;;;;;4959324;28;20034;-83
2023/10/13 03:51:06;;;;;;;12.07;7.10;;;17.00;99.90;;;;;;4982514;28;20509;-83
2023/10/13 03:53:36;;;;;;;11.43;8.57;;;17.10;99.90;;;;;;4972257;28;20370;-84
2023/10/13 03:56:08;;;;;;;10.43;7.22;;;17.10;99.90;;;;;;4971165;28;20490;-83
2023/10/13 03:58:36;;;;;;;11.73;7.55;;;17.00;99.90;;;;;;4975229;28;20054;-84
2023/10/13 04:01:03;;;;;;;12.48;8.40;;;17.00;99.90;;;;;;4957730;28;20035;-84
2023/10/13 04:03:35;;;;;;;9.43;7.05;;;17.00;99.90;;;;;;4957526;28;20058;-84
2023/10/13 04:06:06;;;;;;;12.25;7.75;;;17.10;99.90;;;;;;4972618;28;20473;-84
2023/10/13 04:09:51;;;;;;;11.88;8.65;;;17.00;99.90;;;;;;4974115;28;20439;-83
2023/10/13 04:12:18;;;;;;;9.43;6.72;;;17.10;99.90;;;;;;4979198;28;20034;-82
2023/10/13 04:17:22;;;;;;;14.02;10.10;;;17.00;99.90;;;;;;4978798;28;20033;-82
2023/10/13 04:36:01;;;;;;;;;;;17.00;99.90;;;;;;4968977;28;20031;-83
2023/10/13 04:38:33;;;;;;;13.05;7.15;;;17.00;99.90;;;;;;4971424;28;19909;-83
2023/10/13 04:41:01;;;;;;;12.40;7.70;;;17.00;99.90;;;;;;4955817;28;20097;-83
2023/10/13 04:43:33;;;;;;;13.88;7.40;;;17.00;99.90;;;;;;4970882;28;20042;-82
2023/10/13 04:46:14;;;;;;;14.35;7.22;;;17.00;99.90;;;;;;4961695;28;20034;-81
2023/10/13 04:48:40;;;;;;;9.57;6.18;;;17.00;99.90;;;;;;4952520;28;20600;-80
2023/10/13 04:51:34;;;;;;;10.88;7.47;;;17.00;99.90;;;;;;4981193;28;20042;-80
2023/10/13 04:54:00;;;;;;;10.70;6.93;;;17.00;99.90;;;;;;4978112;28;20038;-80
2023/10/13 04:59:37;;;;;;;12.60;7.80;;;17.10;99.90;;;;;;4958945;28;20030;-80
2023/10/13 05:05:21;;;;;;;13.32;7.43;;;17.10;99.90;;;;;;4962460;28;20023;-80
2023/10/13 06:29:45;;;;;;;6.28;2.85;;;17.40;99.90;;;;;;4976926;28;20041;-80
2023/10/13 06:32:12;;;;;;;7.18;4.82;;;17.40;99.90;;;;;;4979569;28;20042;-80
2023/10/13 06:34:37;;;;;;;13.80;5.07;;;17.40;99.90;;;;;;4972716;28;20038;-80
2023/10/13 06:37:25;;;;;;;17.73;6.22;;;17.40;99.90;;;;;;4959382;28;20030;-80
2023/10/13 06:39:52;;;;;;;4.68;2.75;;;17.40;99.90;;;;;;4952449;28;20450;-80
2023/10/13 06:42:19;;;;;;;9.45;4.70;;;17.40;99.90;;;;;;4965326;28;20030;-80
2023/10/13 06:44:46;;;;;;;10.68;4.00;;;17.50;99.90;;;;;;4958581;28;20052;-80
2023/10/13 06:47:12;;;;;;;17.20;4.88;;;17.40;99.90;;;;;;4973662;28;20522;-81
2023/10/13 06:49:39;;;;;;;33.28;5.57;;;17.50;99.90;;;;;;4958039;28;20034;-81
2023/10/13 06:52:06;;;;;;;12.13;6.55;;;17.40;99.90;;;;;;4965266;28;20046;-81
2023/10/13 06:54:35;;;;;;;11.82;6.35;;;17.50;99.90;;;;;;4959408;28;20150;-80
2023/10/13 06:57:03;;;;;;;10.93;6.28;;;17.50;99.90;;;;;;4974655;28;20031;-81
2023/10/13 06:59:32;;;;;;;11.10;5.70;;;17.50;99.90;;;;;;4972563;28;20263;-80
2023/10/13 07:02:04;;;;;;;14.68;6.25;;;17.50;99.90;;;;;;4975660;28;20034;-81
2023/10/13 07:04:29;;;;;;;13.52;6.75;;;17.50;99.90;;;;;;4978272;28;20026;-81
2023/10/13 07:06:56;;;;;;;15.15;6.72;;;17.50;99.90;;;;;;4979094;28;20084;-80
2023/10/13 07:09:55;;;;;;;14.60;6.85;;;17.50;99.90;;;;;;4964378;28;20042;-81
2023/10/13 07:12:22;;;;;;;9.82;7.63;;;17.60;99.90;;;;;;4973575;28;20043;-81
2023/10/13 07:17:38;;;;;;;12.13;7.10;;;17.60;99.90;;;;;;4974821;28;20045;-81
2023/10/13 07:23:02;;;;;;;18.77;8.57;;;17.70;99.90;;;;;;4978850;28;20097;-81
2023/10/13 07:25:33;;;;;;;17.85;7.85;;;17.80;99.90;;;;;;4943626;28;20113;-81
2023/10/13 07:28:00;;;;;;;11.35;6.50;;;17.80;99.90;;;;;;4968866;28;20479;-80
2023/10/13 07:30:26;;;;;;;12.00;6.78;;;17.80;99.90;;;;;;4974421;28;20501;-80
2023/10/13 07:32:53;;;;;;;16.05;7.72;;;17.90;99.90;;;;;;4957904;28;20623;-81
2023/10/13 07:35:26;;;;;;;10.73;7.13;;;17.90;99.90;;;;;;4958763;28;20042;-82
2023/10/13 07:37:53;;;;;;;13.32;6.53;;;17.90;99.90;;;;;;4957618;28;20042;-81
2023/10/13 07:40:39;;;;;;;18.67;7.32;;;18.00;99.90;;;;;;4971657;28;20494;-81
2023/10/13 07:43:08;;;;;;;12.00;6.82;;;18.00;99.90;;;;;;4961910;28;20033;-82
2023/10/13 07:45:36;;;;;;;13.77;7.45;;;18.10;99.90;;;;;;4974652;28;20035;-82
2023/10/13 07:48:20;;;;;;;13.75;6.88;;;18.10;99.90;;;;;;4957421;28;20034;-82
2023/10/13 07:50:47;;;;;;;20.02;6.82;;;18.30;99.90;;;;;;4976661;28;20594;-82
2023/10/13 07:53:24;;;;;;;17.63;7.75;;;18.30;99.90;;;;;;4959486;28;20041;-82
2023/10/13 07:55:56;;;;;;;14.95;7.25;;;18.40;99.90;;;;;;4962242;28;20030;-81
2023/10/13 07:58:25;;;;;;;16.13;6.82;;;18.40;99.90;;;;;;4961199;28;20060;-81
2023/10/13 08:01:06;;;;;;;10.82;5.65;;;18.50;99.90;;;;;;4955542;28;20486;-81
2023/10/13 08:03:43;;;;;;;22.88;7.60;;;18.50;99.90;;;;;;4978096;28;20125;-81
2023/10/13 08:08:40;;;;;;;13.98;5.72;;;18.60;99.90;;;;;;4984504;28;20296;-81
2023/10/13 08:11:25;;;;;;;13.85;5.60;;;18.70;99.90;;;;;;4979158;28;20486;-82
2023/10/13 08:13:58;;;;;;;14.65;6.45;;;18.70;99.90;;;;;;4952679;28;20034;-81
2023/10/13 08:16:29;;;;;;;17.88;5.95;;;18.70;99.90;;;;;;4950477;28;20057;-81
2023/10/13 08:18:55;;;;;;;15.98;6.90;;;18.90;99.90;;;;;;4969890;28;20091;-81
2023/10/13 08:21:23;;;;;;;10.00;5.57;;;18.90;99.90;;;;;;4973116;28;20050;-82
2023/10/13 08:26:29;;;;;;;16.00;6.47;;;19.10;99.90;;;;;;4991151;28;20035;-81
2023/10/13 08:28:57;;;;;;;15.30;6.72;;;19.20;99.90;;;;;;4987650;28;20023;-81
2023/10/13 08:31:25;;;;;;;16.02;5.88;;;19.30;99.90;;;;;;4974682;28;20038;-81
2023/10/13 08:33:57;;;;;;;15.05;5.35;;;19.40;99.90;;;;;;4963406;28;20518;-81
2023/10/13 08:36:29;;;;;;;16.13;6.05;;;19.40;99.90;;;;;;4993715;28;20031;-82
2023/10/13 08:38:56;;;;;;;11.05;4.70;;;19.60;99.90;;;;;;4964740;28;20033;-82
2023/10/13 08:43:52;;;;;;;16.38;5.38;;;19.80;99.90;;;;;;4994673;28;20508;-82
2023/10/13 08:46:31;;;;;;;9.35;5.20;;;19.80;99.90;;;;;;4982481;28;20034;-82
2023/10/13 08:49:15;;;;;;;10.50;5.22;;;19.80;99.90;;;;;;4981306;28;20049;-83
2023/10/13 08:51:45;;;;;;;9.13;3.40;;;19.90;99.90;;;;;;4955891;28;20030;-82
2023/10/13 08:54:33;;;;;;;14.05;5.47;;;20.10;99.90;;;;;;4982289;28;20050;-82
2023/10/13 08:57:19;;;;;;;12.77;4.97;;;20.20;99.90;;;;;;4968360;28;20038;-81
2023/10/13 08:59:52;;;;;;;;;;;20.30;99.90;;;;;;4977464;28;20034;-82
2023/10/13 09:02:21;;;;;;;11.05;4.18;;;20.30;99.90;;;;;;4974713;28;19913;-82
2023/10/13 09:07:47;;;;;;;13.05;4.90;;;20.60;99.90;;;;;;4969529;28;20050;-81
2023/10/13 09:10:32;;;;;;;12.57;5.28;;;20.50;99.90;;;;;;4977541;28;20093;-82
2023/10/13 09:13:01;;;;;;;9.43;5.00;;;20.50;99.90;;;;;;4983164;28;20048;-82
2023/10/13 09:15:59;;;;;;;13.30;5.30;;;20.70;99.90;;;;;;4961206;28;20034;-82
2023/10/13 09:18:42;;;;;;;17.38;4.45;;;20.70;99.90;;;;;;4981248;28;20030;-81
2023/10/13 09:21:29;;;;;;;15.43;4.72;;;21.00;99.90;;;;;;4975771;28;20045;-81
2023/10/13 09:24:15;;;;;;;12.55;4.43;;;21.20;99.90;;;;;;4990093;28;20040;-81
2023/10/13 09:26:39;;;;;;;14.00;5.32;;;21.20;99.90;;;;;;4991466;28;20030;-82
2023/10/13 09:29:17;;;;;;;13.00;5.13;;;21.20;99.90;;;;;;4991854;28;20034;-81
2023/10/13 09:31:44;;;;;;;12.70;4.55;;;21.40;99.90;;;;;;4949084;28;20039;-81
2023/10/13 09:34:10;;;;;;;12.93;5.38;;;21.60;99.90;;;;;;4967480;28;20474;-81
2023/10/13 09:36:36;;;;;;;10.40;4.00;;;21.60;99.90;;;;;;4967588;28;20109;-82
2023/10/13 09:39:25;;;;;;;11.65;4.35;;;21.70;99.90;;;;;;4985953;28;20041;-81
2023/10/13 09:41:53;;;;;;;23.05;5.88;;;21.90;99.90;;;;;;4974749;28;20033;-81
2023/10/13 09:44:21;;;;;;;13.00;5.25;;;21.90;99.90;;;;;;4968816;28;20034;-81
2023/10/13 09:46:49;;;;;;;13.55;5.35;;;22.00;99.90;;;;;;4982764;28;20093;-81
2023/10/13 09:49:15;;;;;;;20.88;6.18;;;22.20;99.90;;;;;;4976544;28;20053;-81
2023/10/13 09:51:45;;;;;;;15.38;5.18;;;22.30;99.90;;;;;;4982422;28;20074;-81
2023/10/13 09:54:26;;;;;;;15.07;5.13;;;22.40;99.90;;;;;;4962735;28;20037;-81
2023/10/13 09:56:56;;;;;;;11.80;4.15;;;22.50;99.90;;;;;;4973390;28;20023;-81
2023/10/13 09:59:34;;;;;;;12.77;5.72;;;22.60;99.90;;;;;;4963867;28;20089;-81
2023/10/13 10:02:18;;;;;;;9.73;4.85;;;22.70;99.90;;;;;;4978521;28;21676;-80
2023/10/13 10:04:53;;;;;;;11.13;4.50;;;22.80;99.90;;;;;;4975137;28;20030;-81
2023/10/13 10:07:28;;;;;;;10.88;4.80;;;22.80;99.90;;;;;;4976873;28;20026;-82
2023/10/13 10:10:03;;;;;;;6.15;2.92;;;23.00;99.90;;;;;;4961613;28;20038;-80
2023/10/13 10:12:46;;;;;;;13.57;5.13;;;23.30;99.90;;;;;;4970085;28;20435;-81
2023/10/13 10:15:34;;;;;;;12.88;4.90;;;23.40;99.90;;;;;;4998323;28;20132;-81
2023/10/13 10:18:00;;;;;;;11.05;4.63;;;23.50;99.90;;;;;;4956229;28;20518;-80
2023/10/13 10:20:42;;;;;;;15.35;5.13;;;23.60;99.90;;;;;;4959789;28;20065;-80
2023/10/13 10:23:12;;;;;;;5.35;3.08;;;23.60;99.90;;;;;;4959637;28;20113;-81
2023/10/13 10:25:38;;;;;;;6.10;4.20;;;23.70;99.90;;;;;;4976867;28;20026;-81
2023/10/13 10:28:07;;;;;;;9.77;3.30;;;23.80;99.90;;;;;;4967601;28;20084;-81
2023/10/13 10:30:35;;;;;;;13.60;4.55;;;23.80;99.90;;;;;;4974085;28;20068;-81
2023/10/13 10:33:06;;;;;;;12.45;5.57;;;23.80;99.90;;;;;;4973202;28;20034;-81
2023/10/13 10:35:34;;;;;;;13.55;4.72;;;23.90;99.90;;;;;;4976536;28;20797;-80
2023/10/13 10:41:03;;;;;;;13.05;4.47;;;23.90;99.90;;;;;;4959776;28;20096;-81
2023/10/13 10:43:43;;;;;;;10.73;4.15;;;24.00;99.90;;;;;;4956173;28;20036;-81
2023/10/13 10:46:10;;;;;;;11.20;4.55;;;23.90;99.90;;;;;;4961686;28;20049;-81
2023/10/13 10:48:42;;;;;;;14.90;5.38;;;24.00;99.90;;;;;;4963744;28;20035;-81
2023/10/13 10:51:15;;;;;;;10.68;4.90;;;24.00;99.90;;;;;;4974688;28;20092;-81
2023/10/13 10:53:44;;;;;;;7.95;4.15;;;24.10;99.90;;;;;;4959391;28;20042;-80
2023/10/13 10:56:19;;;;;;;12.57;5.10;;;24.30;99.90;;;;;;4951694;28;20817;-79
2023/10/13 10:58:59;;;;;;;13.82;5.22;;;24.30;99.90;;;;;;4946066;28;20478;-81
2023/10/13 11:01:33;;;;;;;8.43;4.55;;;24.40;99.90;;;;;;4970469;28;20046;-81
2023/10/13 11:04:07;;;;;;;7.97;3.92;;;24.30;99.90;;;;;;4962424;28;20052;-80
2023/10/13 11:06:41;;;;;;;11.00;6.38;;;24.30;99.90;;;;;;4982455;28;20030;-81
2023/10/13 11:11:57;;;;;;;13.82;5.80;;;24.10;99.90;;;;;;4986101;28;20099;-81
2023/10/13 11:14:23;;;;;;;10.98;6.15;;;24.30;99.90;;;;;;4981372;28;20429;-81
2023/10/13 11:16:59;;;;;;;10.38;4.85;;;24.30;99.90;;;;;;4987446;28;20049;-80
2023/10/13 11:19:34;;;;;;;15.10;6.28;;;24.20;99.90;;;;;;4991251;28;20034;-80
2023/10/13 11:25:29;;;;;;;10.43;4.82;;;24.40;99.90;;;;;;4959105;28;20058;-80
2023/10/13 11:27:55;;;;;;;11.65;6.10;;;24.40;99.90;;;;;;4970565;28;20026;-81
2023/10/13 11:30:58;;;;;;;13.70;5.45;;;24.50;99.90;;;;;;4969033;28;20034;-81
2023/10/13 11:33:17;;;;;;;14.57;5.05;;;24.60;99.90;;;;;;4980901;28;20092;-81
2023/10/13 11:38:26;;;;;;;13.30;6.65;;;24.30;99.90;;;;;;4976109;28;20026;-79
2023/10/13 11:43:52;;;;;;;13.43;7.03;;;24.80;99.90;;;;;;4969154;28;20034;-79
2023/10/13 11:49:17;;;;;;;22.52;6.53;;;24.90;99.90;;;;;;4966403;28;20113;-78
2023/10/13 11:51:51;;;;;;;17.25;5.13;;;24.90;99.90;;;;;;4986260;28;20054;-78
2023/10/13 11:54:21;;;;;;;11.25;5.75;;;25.10;99.90;;;;;;4969578;28;20442;-77
2023/10/13 11:56:47;;;;;;;16.83;6.25;;;25.20;99.90;;;;;;4966449;28;20038;-79
2023/10/13 11:59:17;;;;;;;11.57;6.05;;;25.30;99.90;;;;;;4962021;28;20489;-79
2023/10/13 12:07:16;;;;;;;10.80;4.28;;;25.60;99.60;;;;;;4979512;28;20033;-80
2023/10/13 12:12:21;;;;;;;13.18;3.97;;;25.80;99.40;;;;;;4982132;28;20061;-79
2023/10/13 12:14:52;;;;;;;10.32;4.93;;;26.20;98.30;;;;;;4974116;28;20034;-80
2023/10/13 12:17:36;;;;;;;18.30;5.25;;;26.20;98.20;;;;;;4980716;28;20490;-80
2023/10/13 12:20:05;;;;;;;13.43;5.10;;;26.40;97.50;;;;;;4957776;28;20030;-80
2023/10/13 12:22:39;;;;;;;18.50;4.93;;;26.30;97.30;;;;;;4978703;28;20049;-80
2023/10/13 12:25:34;;;;;;;9.07;4.07;;;26.60;96.40;;;;;;4966263;28;20027;-81
2023/10/13 12:28:12;;;;;;;11.73;5.22;;;26.60;96.10;;;;;;4979213;28;20040;-80
2023/10/13 12:30:54;;;;;;;14.43;3.95;;;26.70;96.10;;;;;;4977651;28;20034;-81
2023/10/13 12:33:27;;;;;;;13.40;5.00;;;26.80;95.10;;;;;;4972044;28;20104;-81
2023/10/13 12:52:25;;;;;;;10.30;4.35;;;26.50;93.00;;;;;;4974364;28;20073;-79
2023/10/13 12:57:24;;;;;;;10.13;4.30;;;26.40;93.80;;;;;;4974823;28;20027;-79
2023/10/13 12:59:53;;;;;;;15.63;3.78;;;26.40;93.30;;;;;;4969879;28;20508;-78
2023/10/13 13:02:24;;;;;;;13.82;4.07;;;26.20;93.00;;;;;;4975777;28;20399;-79
2023/10/13 13:05:06;;;;;;;18.88;4.97;;;26.20;93.20;;;;;;4976226;28;20054;-79
2023/10/13 13:07:43;;;;;;;13.05;4.43;;;26.00;92.90;;;;;;4976440;28;20061;-79
2023/10/13 13:10:11;;;;;;;17.10;4.75;;;26.10;93.60;;;;;;4972918;28;20410;-79
2023/10/13 13:12:36;;;;;;;11.15;5.32;;;26.00;93.40;;;;;;4974798;28;20482;-79
2023/10/13 13:15:08;;;;;;;20.50;5.88;;;26.00;93.70;;;;;;4974810;28;20050;-79
2023/10/13 13:17:38;;;;;;;12.70;4.22;;;26.00;93.30;;;;;;4976939;28;20038;-78
2023/10/13 13:20:11;;;;;;;17.33;5.15;;;25.70;93.80;;;;;;4975972;28;20042;-78
2023/10/13 13:22:38;;;;;;;14.40;5.07;;;25.70;93.70;;;;;;4976693;28;20125;-78
2023/10/13 13:25:07;;;;;;;19.67;5.35;;;25.70;93.70;;;;;;4972174;28;20122;-79
2023/10/13 13:27:33;;;;;;;13.68;4.43;;;25.60;93.20;;;;;;4963051;28;20105;-79
2023/10/13 13:30:00;;;;;;;13.68;4.78;;;25.60;93.20;;;;;;4971702;28;20121;-80
2023/10/13 13:32:28;;;;;;;11.50;5.00;;;25.40;93.50;;;;;;4977318;28;20041;-79
2023/10/13 13:35:07;;;;;;;16.27;5.22;;;25.40;92.90;;;;;;4959793;28;20972;-79
2023/10/13 13:37:33;;;;;;;20.38;5.47;;;25.30;93.70;;;;;;4960662;28;20045;-79
2023/10/13 13:40:15;;;;;;;10.57;3.28;;;25.20;93.50;;;;;;4969926;28;20031;-79
2023/10/13 13:42:44;;;;;;;15.85;4.50;;;25.20;93.70;;;;;;4959911;28;20133;-79
2023/10/13 13:45:27;;;;;;;11.10;3.35;;;25.10;93.60;;;;;;4960724;28;20057;-79
2023/10/13 13:47:55;;;;;;;13.52;4.55;;;25.10;93.40;;;;;;4978025;28;20038;-78
2023/10/13 13:50:24;;;;;;;16.67;5.85;;;24.90;93.30;;;;;;4974926;28;20065;-79
2023/10/13 13:52:55;;;;;;;15.30;4.85;;;25.00;93.40;;;;;;4975621;28;20045;-79
2023/10/13 13:55:24;;;;;;;15.55;5.13;;;24.90;93.50;;;;;;4970530;28;20030;-78
2023/10/13 13:57:50;;;;;;;20.13;5.60;;;24.80;93.40;;;;;;4975269;28;20383;-79
2023/10/13 14:00:21;;;;;;;14.60;4.63;;;24.80;93.50;;;;;;4960153;28;20030;-79
2023/10/13 14:02:49;;;;;;;19.67;4.80;;;24.80;93.40;;;;;;4976290;28;20069;-78
2023/10/13 14:05:15;;;;;;;10.40;4.18;;;24.70;93.80;;;;;;4960185;28;20476;-78
2023/10/13 14:07:50;;;;;;;16.13;5.95;;;24.70;93.20;;;;;;4964480;28;20038;-79
2023/10/13 14:10:31;;;;;;;14.68;4.57;;;24.60;93.30;;;;;;4956385;28;20061;-79
2023/10/13 14:13:14;;;;;;;14.60;4.85;;;24.60;93.40;;;;;;4959162;28;20104;-79
2023/10/13 14:15:43;;;;;;;17.58;4.53;;;24.50;93.50;;;;;;4973418;28;20043;-79
2023/10/13 14:18:14;;;;;;;12.23;4.90;;;24.70;93.40;;;;;;4972928;28;20484;-80
2023/10/13 14:20:41;;;;;;;13.43;3.85;;;24.60;93.90;;;;;;4975060;28;20092;-79
2023/10/13 14:23:09;;;;;;;24.33;4.75;;;24.40;93.60;;;;;;4965057;28;20057;-79
2023/10/13 14:25:37;;;;;;;9.77;4.88;;;24.40;93.60;;;;;;4976477;28;20355;-78
2023/10/13 14:28:05;;;;;;;16.83;5.40;;;24.30;93.40;;;;;;4976782;28;20967;-80
2023/10/13 14:30:31;;;;;;;11.45;4.50;;;24.40;93.10;;;;;;4956257;28;20033;-80
2023/10/13 14:32:58;;;;;;;15.93;5.07;;;24.40;93.90;;;;;;4973570;28;20397;-79
2023/10/13 14:35:25;;;;;;;16.83;4.57;;;24.30;93.40;;;;;;4972767;28;20024;-79
2023/10/13 14:37:52;;;;;;;16.67;4.40;;;24.20;93.40;;;;;;4959548;28;20041;-79
2023/10/13 14:40:21;;;;;;;6.57;3.10;;;24.10;93.20;;;;;;4970774;28;20645;-80
2023/10/13 14:42:47;;;;;;;22.23;5.55;;;24.10;93.10;;;;;;4976242;28;20045;-79
2023/10/13 14:45:13;;;;;;;21.80;5.85;;;24.00;93.20;;;;;;4964467;28;20499;-79
2023/10/13 14:47:44;;;;;;;22.58;4.40;;;24.00;93.40;;;;;;4973406;28;20026;-80
2023/10/13 14:50:17;;;;;;;17.70;4.82;;;24.00;93.70;;;;;;4936037;28;20030;-79
2023/10/13 14:52:43;;;;;;;18.50;5.07;;;23.90;93.50;;;;;;4958386;28;20106;-79
2023/10/13 14:55:18;;;;;;;21.13;5.00;;;23.80;93.30;;;;;;4958837;28;20121;-80
2023/10/13 14:57:50;;;;;;;11.05;4.38;;;23.70;93.00;;;;;;4985085;28;20044;-80
2023/10/13 15:00:24;;;;;;;17.60;4.90;;;23.70;93.10;;;;;;4975890;28;20043;-80
2023/10/13 15:02:51;;;;;;;11.00;4.10;;;23.60;93.00;;;;;;4984650;28;20030;-80
2023/10/13 15:05:16;;;;;;;15.63;4.40;;;23.50;92.90;;;;;;4966350;28;20045;-80
2023/10/13 15:07:45;;;;;;;16.67;4.95;;;23.50;92.90;;;;;;4967102;28;20041;-80
2023/10/13 15:10:14;;;;;;;14.52;3.47;;;23.40;93.00;;;;;;4967319;28;20649;-80
2023/10/13 15:12:44;;;;;;;19.38;4.45;;;23.30;93.00;;;;;;4278094;28;10000315;-80
2023/10/13 15:15:16;;;;;;;13.82;4.07;;;23.20;93.00;;;;;;4946437;28;20100;-80
2023/10/13 15:17:44;;;;;;;13.65;4.18;;;23.20;92.90;;;;;;4977396;28;20034;-79
2023/10/13 15:20:15;;;;;;;16.98;5.28;;;23.10;93.00;;;;;;4962892;28;20572;-78
2023/10/13 15:22:43;;;;;;;8.90;3.70;;;23.10;92.70;;;;;;4979576;28;20731;-80
2023/10/13 15:25:20;;;;;;;13.45;4.90;;;23.00;92.60;;;;;;4962328;28;20041;-80
2023/10/13 15:28:02;;;;;;;13.80;4.75;;;23.00;92.90;;;;;;4954977;28;20034;-79
2023/10/13 15:30:42;;;;;;;19.92;4.97;;;23.00;92.80;;;;;;4964977;28;20056;-81
2023/10/13 15:33:08;;;;;;;14.60;4.47;;;22.90;92.90;;;;;;4963018;28;20038;-80
2023/10/13 15:35:33;;;;;;;12.77;4.07;;;22.90;92.90;;;;;;4956013;28;20030;-81
2023/10/13 15:38:00;;;;;;;15.43;4.15;;;22.80;92.80;;;;;;4975031;28;20046;-81
2023/10/13 15:40:27;;;;;;;8.88;3.50;;;22.80;92.90;;;;;;4959895;28;20094;-79
2023/10/13 15:42:59;;;;;;;13.60;5.35;;;22.80;92.70;;;;;;4946280;28;20035;-80
2023/10/13 15:45:32;;;;;;;9.63;3.15;;;22.70;92.80;;;;;;4957209;28;20038;-80
2023/10/13 15:47:58;;;;;;;13.50;4.38;;;22.60;92.60;;;;;;4955028;28;20752;-80
2023/10/13 15:50:23;;;;;;;13.45;4.70;;;22.60;93.00;;;;;;4941754;28;20038;-81
2023/10/13 15:52:50;;;;;;;18.40;5.05;;;22.60;92.90;;;;;;4969181;28;20062;-80